Time;durP1;ratioP1;P1;durP2;ratioP2;P2;SDS_P1;SDS_P2;PMS_P1;PMS_P2;Temp;Humidity;BMP_temperature;BMP_pressure;BME280_temperature;BME280_humidity;BME280_pressure;Samples;Min_cycle;Max_cycle;Signal;HPM_P1;HPM_P2
2024/01/30 00:01:07;;;;;;;5.43;3.93;;;5.10;99.90;;;;;;5008673;28;20548;-71
2024/01/30 00:03:34;;;;;;;5.83;4.37;;;5.10;99.90;;;;;;5008568;28;20300;-71
2024/01/30 00:06:04;;;;;;;6.23;4.33;;;5.00;99.90;;;;;;5008940;28;20220;-71
2024/01/30 00:08:31;;;;;;;4.37;3.50;;;5.00;99.90;;;;;;5008475;28;20217;-71
2024/01/30 00:10:58;;;;;;;4.90;4.30;;;4.90;99.90;;;;;;5026251;28;20197;-71
2024/01/30 00:13:24;;;;;;;4.63;3.87;;;4.90;99.90;;;;;;5028594;28;20680;-71
2024/01/30 00:15:51;;;;;;;4.33;3.93;;;5.00;99.90;;;;;;5028207;28;20833;-71
2024/01/30 00:18:19;;;;;;;4.60;4.20;;;5.00;99.90;;;;;;5028173;28;20267;-71
2024/01/30 00:20:46;;;;;;;5.73;4.37;;;5.00;99.90;;;;;;5028043;28;20270;-71
2024/01/30 00:23:14;;;;;;;5.03;4.20;;;4.90;99.90;;;;;;5028764;28;20213;-71
2024/01/30 00:25:41;;;;;;;4.73;3.83;;;4.90;99.90;;;;;;5016894;28;20625;-71
2024/01/30 00:28:08;;;;;;;5.73;4.40;;;5.00;99.90;;;;;;5008221;28;20682;-71
2024/01/30 00:30:35;;;;;;;5.73;4.27;;;4.90;99.90;;;;;;5008071;28;20343;-71
2024/01/30 00:33:02;;;;;;;5.40;4.20;;;4.90;99.90;;;;;;5025343;28;20743;-71
2024/01/30 00:35:29;;;;;;;4.33;3.93;;;4.90;99.90;;;;;;5027656;28;20327;-71
2024/01/30 00:37:57;;;;;;;6.07;4.27;;;4.90;99.90;;;;;;5027937;28;20291;-71
2024/01/30 00:40:25;;;;;;;4.40;4.00;;;4.90;99.90;;;;;;5018419;28;20206;-71
2024/01/30 00:42:52;;;;;;;5.03;4.43;;;4.90;99.90;;;;;;5007788;28;20727;-71
2024/01/30 00:45:19;;;;;;;5.33;4.10;;;4.90;99.90;;;;;;5008204;28;20245;-71
2024/01/30 00:47:46;;;;;;;5.87;4.03;;;4.90;99.90;;;;;;5022767;28;20291;-71
2024/01/30 00:50:13;;;;;;;4.87;4.33;;;4.80;99.90;;;;;;5014992;28;20316;-71
2024/01/30 00:52:41;;;;;;;6.20;4.33;;;4.80;99.90;;;;;;5007458;28;20269;-71
2024/01/30 00:55:08;;;;;;;4.70;3.90;;;4.80;99.90;;;;;;5013938;28;20573;-71
2024/01/30 00:57:36;;;;;;;4.33;3.93;;;4.80;99.90;;;;;;5027340;28;20786;-72
2024/01/30 01:00:06;;;;;;;4.13;3.70;;;4.80;99.90;;;;;;5027696;28;20239;-71
2024/01/30 01:02:32;;;;;;;6.70;4.47;;;4.80;99.90;;;;;;5027593;28;20236;-71
2024/01/30 01:04:59;;;;;;;4.97;3.97;;;4.80;99.90;;;;;;5027449;28;20730;-71
2024/01/30 01:07:26;;;;;;;6.60;4.73;;;4.80;99.90;;;;;;5027428;28;20315;-71
2024/01/30 01:09:53;;;;;;;4.40;4.03;;;4.80;99.90;;;;;;5027338;28;20232;-71
2024/01/30 01:12:20;;;;;;;4.43;4.10;;;4.80;99.90;;;;;;5027654;28;20303;-71
2024/01/30 01:14:48;;;;;;;5.20;3.90;;;4.90;99.90;;;;;;5027526;28;20212;-71
2024/01/30 01:17:16;;;;;;;3.87;3.57;;;4.80;99.90;;;;;;5027558;28;20622;-71
2024/01/30 01:19:42;;;;;;;5.20;3.90;;;4.80;99.90;;;;;;5027421;28;20233;-71
2024/01/30 01:22:09;;;;;;;5.00;4.23;;;4.80;99.90;;;;;;5015714;28;20707;-71
2024/01/30 01:24:37;;;;;;;5.47;3.80;;;4.80;99.90;;;;;;5007412;28;20767;-74
2024/01/30 01:27:04;;;;;;;5.40;4.30;;;4.80;99.90;;;;;;5019632;28;20291;-72
2024/01/30 01:29:31;;;;;;;4.97;4.40;;;4.80;99.90;;;;;;5027233;28;20229;-72
2024/01/30 01:31:59;;;;;;;6.63;4.83;;;4.70;99.90;;;;;;5027492;28;20288;-72
2024/01/30 01:34:26;;;;;;;4.30;3.73;;;4.80;99.90;;;;;;5027163;28;20293;-73
2024/01/30 01:36:55;;;;;;;5.07;4.50;;;4.70;99.90;;;;;;5026723;28;20215;-72
2024/01/30 01:39:23;;;;;;;5.33;4.23;;;4.70;99.90;;;;;;5027164;28;20228;-72
2024/01/30 01:41:49;;;;;;;4.57;3.83;;;4.70;99.90;;;;;;5025920;28;20236;-72
2024/01/30 01:44:16;;;;;;;5.43;4.43;;;4.70;99.90;;;;;;5010226;28;20240;-72
2024/01/30 01:46:43;;;;;;;5.17;3.97;;;4.70;99.90;;;;;;5007147;28;20292;-73
2024/01/30 01:49:12;;;;;;;4.27;3.83;;;4.60;99.90;;;;;;5007691;28;20328;-72
2024/01/30 01:51:40;;;;;;;4.40;4.00;;;4.60;99.90;;;;;;5006912;28;20296;-72
2024/01/30 01:54:08;;;;;;;4.60;4.20;;;4.60;99.90;;;;;;5005868;28;20237;-72
2024/01/30 01:56:36;;;;;;;4.80;4.20;;;4.60;99.90;;;;;;5007486;28;20213;-72
2024/01/30 01:59:07;;;;;;;4.90;3.87;;;4.60;99.90;;;;;;5007025;28;20253;-72
2024/01/30 02:01:34;;;;;;;4.50;4.10;;;4.60;99.90;;;;;;5006737;28;20237;-72
2024/01/30 02:04:02;;;;;;;5.53;4.17;;;4.60;99.90;;;;;;5006921;28;20217;-72
2024/01/30 02:06:30;;;;;;;4.43;4.13;;;4.60;99.90;;;;;;5006839;28;20213;-72
2024/01/30 02:08:57;;;;;;;4.40;4.00;;;4.60;99.90;;;;;;5007162;28;20359;-72
2024/01/30 02:11:24;;;;;;;4.57;4.17;;;4.60;99.90;;;;;;5007038;28;20209;-71
2024/01/30 02:13:51;;;;;;;5.07;4.50;;;4.60;99.90;;;;;;5007208;28;20205;-71
2024/01/30 02:16:18;;;;;;;4.93;4.30;;;4.60;99.90;;;;;;5006679;28;20592;-71
2024/01/30 02:18:47;;;;;;;4.80;4.30;;;4.50;99.90;;;;;;5006430;28;20244;-71
2024/01/30 02:21:17;;;;;;;6.27;4.33;;;4.40;99.90;;;;;;5006914;28;20216;-71
2024/01/30 02:23:45;;;;;;;4.83;4.43;;;4.30;99.90;;;;;;5006581;28;20300;-71
2024/01/30 02:26:12;;;;;;;5.87;4.57;;;4.30;99.90;;;;;;4987302;28;20214;-71
2024/01/30 02:28:39;;;;;;;5.23;4.17;;;4.20;99.90;;;;;;4986686;28;20767;-71
2024/01/30 02:31:06;;;;;;;4.47;4.07;;;4.20;99.90;;;;;;4987155;28;20218;-71
2024/01/30 02:33:33;;;;;;;4.77;4.27;;;4.20;99.90;;;;;;5001388;28;20912;-71
2024/01/30 02:36:00;;;;;;;4.87;4.20;;;4.30;99.90;;;;;;5006589;28;20210;-72
2024/01/30 02:38:28;;;;;;;4.37;4.00;;;4.20;99.90;;;;;;5006580;28;20295;-73
2024/01/30 02:40:56;;;;;;;5.17;4.53;;;4.30;99.90;;;;;;5006269;28;20711;-72
2024/01/30 02:43:23;;;;;;;4.73;4.20;;;4.30;99.90;;;;;;5005959;28;20213;-73
2024/01/30 02:45:50;;;;;;;4.50;4.07;;;4.40;99.90;;;;;;5006607;28;20272;-72
2024/01/30 02:48:17;;;;;;;4.80;4.30;;;4.40;99.90;;;;;;5006310;28;20244;-72
2024/01/30 02:50:44;;;;;;;4.60;4.20;;;4.30;99.90;;;;;;5006871;28;20288;-73
2024/01/30 02:53:10;;;;;;;4.50;3.97;;;4.30;99.90;;;;;;5006137;28;20325;-73
2024/01/30 02:55:39;;;;;;;4.87;4.47;;;4.30;99.90;;;;;;5006332;28;20273;-73
2024/01/30 02:58:06;;;;;;;8.23;4.33;;;4.30;99.90;;;;;;5006100;28;20202;-72
2024/01/30 03:00:33;;;;;;;5.17;4.37;;;4.30;99.90;;;;;;5010100;28;20241;-73
2024/01/30 03:03:00;;;;;;;5.07;4.23;;;4.40;99.90;;;;;;5023820;28;20284;-71
2024/01/30 03:05:27;;;;;;;6.30;4.53;;;4.40;99.90;;;;;;5024945;28;20763;-71
2024/01/30 03:07:54;;;;;;;5.27;4.50;;;4.20;99.90;;;;;;5008514;28;20582;-71
2024/01/30 03:10:21;;;;;;;6.40;4.67;;;4.20;99.90;;;;;;5009165;28;20204;-71
2024/01/30 03:12:49;;;;;;;5.13;4.53;;;4.10;99.90;;;;;;5009189;28;20680;-71
2024/01/30 03:15:16;;;;;;;5.97;4.43;;;4.20;99.90;;;;;;5009382;28;20287;-71
2024/01/30 03:17:43;;;;;;;4.30;3.90;;;4.20;99.90;;;;;;5009568;28;20233;-72
2024/01/30 03:20:10;;;;;;;4.63;4.23;;;4.20;99.90;;;;;;5009512;28;20308;-72
2024/01/30 03:22:39;;;;;;;5.03;4.23;;;4.20;99.90;;;;;;5009496;28;20275;-73
2024/01/30 03:25:06;;;;;;;4.80;4.40;;;4.20;99.90;;;;;;5009774;28;20241;-72
2024/01/30 03:27:33;;;;;;;5.63;4.30;;;4.30;99.90;;;;;;5025360;28;20244;-72
2024/01/30 03:30:01;;;;;;;5.10;4.60;;;4.30;99.90;;;;;;5029067;28;20312;-72
2024/01/30 03:32:28;;;;;;;6.90;4.10;;;4.20;99.90;;;;;;5017317;28;20321;-72
2024/01/30 03:34:55;;;;;;;5.40;3.73;;;4.30;99.90;;;;;;5007533;28;20702;-73
2024/01/30 03:37:22;;;;;;;5.47;4.27;;;4.30;99.90;;;;;;5014650;28;20208;-72
2024/01/30 03:39:49;;;;;;;6.00;3.97;;;4.30;99.90;;;;;;5019604;28;20769;-72
2024/01/30 03:42:16;;;;;;;5.13;4.60;;;4.30;99.90;;;;;;5027607;28;21139;-72
2024/01/30 03:44:44;;;;;;;4.47;3.93;;;4.30;99.90;;;;;;5026963;28;20793;-71
2024/01/30 03:47:12;;;;;;;4.37;3.97;;;4.30;99.90;;;;;;5026545;28;20498;-72
2024/01/30 03:49:39;;;;;;;4.50;4.10;;;4.30;99.90;;;;;;5026828;28;20729;-73
2024/01/30 03:52:06;;;;;;;6.87;4.53;;;4.30;99.90;;;;;;5026671;28;20332;-72
2024/01/30 03:54:33;;;;;;;4.80;4.40;;;4.30;99.90;;;;;;5021101;28;20650;-72
2024/01/30 03:57:00;;;;;;;5.07;4.10;;;4.30;99.90;;;;;;5007480;28;20248;-72
2024/01/30 03:59:30;;;;;;;6.77;4.47;;;4.30;99.90;;;;;;5007805;28;20280;-72
2024/01/30 04:01:57;;;;;;;4.37;3.97;;;4.30;99.90;;;;;;5007561;28;20208;-72
2024/01/30 04:04:25;;;;;;;5.00;4.30;;;4.30;99.90;;;;;;5008235;28;20221;-72
2024/01/30 04:06:52;;;;;;;5.00;4.60;;;4.30;99.90;;;;;;5007498;28;20853;-72
2024/01/30 04:09:19;;;;;;;4.73;4.33;;;4.20;99.90;;;;;;5007552;28;20300;-72
2024/01/30 04:11:46;;;;;;;4.40;4.00;;;4.30;99.90;;;;;;5008664;28;20224;-72
2024/01/30 04:14:13;;;;;;;5.33;4.60;;;4.30;99.90;;;;;;5008422;28;20268;-72
2024/01/30 04:16:42;;;;;;;5.00;4.23;;;4.30;99.90;;;;;;5007436;28;20292;-72
2024/01/30 04:19:08;;;;;;;4.60;3.93;;;4.30;99.90;;;;;;5008759;28;20237;-72
2024/01/30 04:21:37;;;;;;;4.30;3.90;;;4.20;99.90;;;;;;5008443;28;20303;-72
2024/01/30 04:24:04;;;;;;;5.30;4.30;;;4.20;99.90;;;;;;5008472;28;20210;-72
2024/01/30 04:26:31;;;;;;;5.10;4.27;;;4.20;99.90;;;;;;5008235;28;20288;-72
2024/01/30 04:28:58;;;;;;;5.20;4.40;;;4.20;99.90;;;;;;5008711;28;20280;-72
2024/01/30 04:31:25;;;;;;;6.50;4.33;;;4.10;99.90;;;;;;5008493;28;20221;-72
2024/01/30 04:33:51;;;;;;;4.73;4.23;;;4.20;99.90;;;;;;5008454;28;20220;-72
2024/01/30 04:36:18;;;;;;;4.53;3.77;;;4.10;99.90;;;;;;5008537;28;20241;-72
2024/01/30 04:38:47;;;;;;;4.70;4.27;;;4.10;99.90;;;;;;5008243;28;20304;-72
2024/01/30 04:41:13;;;;;;;4.77;4.07;;;4.10;99.90;;;;;;5007958;28;20248;-72
2024/01/30 04:43:40;;;;;;;5.40;4.73;;;4.10;99.90;;;;;;5007697;28;20688;-72
2024/01/30 04:46:07;;;;;;;5.77;4.80;;;4.10;99.90;;;;;;5008142;28;20226;-72
2024/01/30 04:48:34;;;;;;;6.23;4.77;;;4.10;99.90;;;;;;5008043;28;20304;-72
2024/01/30 04:51:02;;;;;;;4.20;3.90;;;3.90;99.90;;;;;;5007966;28;20300;-72
2024/01/30 04:53:31;;;;;;;5.17;4.20;;;3.80;99.90;;;;;;5007273;28;20245;-72
2024/01/30 04:55:59;;;;;;;4.07;3.67;;;3.90;99.90;;;;;;5007918;28;20304;-72
2024/01/30 04:58:26;;;;;;;5.67;4.53;;;3.90;99.90;;;;;;5007362;28;20296;-72
2024/01/30 05:00:52;;;;;;;3.90;3.60;;;3.90;99.90;;;;;;5008115;28;20279;-72
2024/01/30 05:03:22;;;;;;;5.13;4.30;;;3.90;99.90;;;;;;5007730;28;20210;-72
2024/01/30 05:05:49;;;;;;;4.50;4.10;;;3.90;99.90;;;;;;5007384;28;20263;-72
2024/01/30 05:08:16;;;;;;;5.07;4.10;;;3.90;99.90;;;;;;5007422;28;20615;-71
2024/01/30 05:10:43;;;;;;;4.60;4.07;;;3.90;99.90;;;;;;5007733;28;20202;-72
2024/01/30 05:13:13;;;;;;;4.47;4.07;;;3.90;99.90;;;;;;5007699;28;20288;-72
2024/01/30 05:15:40;;;;;;;7.50;3.90;;;3.90;99.90;;;;;;5007603;28;20194;-72
2024/01/30 05:18:07;;;;;;;5.23;4.20;;;4.00;99.90;;;;;;5007613;28;20295;-72
2024/01/30 05:20:34;;;;;;;5.00;3.83;;;3.90;99.90;;;;;;5007114;28;20325;-72
2024/01/30 05:23:01;;;;;;;6.10;4.40;;;3.90;99.90;;;;;;5007312;28;20205;-72
2024/01/30 05:25:28;;;;;;;7.33;4.67;;;3.90;99.90;;;;;;4994106;28;20264;-72
2024/01/30 05:27:55;;;;;;;5.63;4.60;;;3.90;99.90;;;;;;4987609;28;20206;-72
2024/01/30 05:30:24;;;;;;;5.30;3.93;;;3.90;99.90;;;;;;4991229;28;20213;-72
2024/01/30 05:32:50;;;;;;;7.23;4.37;;;3.90;99.90;;;;;;5007583;28;20291;-72
2024/01/30 05:35:17;;;;;;;4.33;3.93;;;3.90;99.90;;;;;;5007306;28;20209;-72
2024/01/30 05:37:44;;;;;;;4.43;4.00;;;3.90;99.90;;;;;;5006868;28;20221;-72
2024/01/30 05:40:12;;;;;;;5.03;4.57;;;3.90;99.90;;;;;;5007274;28;20317;-71
2024/01/30 05:42:39;;;;;;;5.30;3.97;;;3.90;99.90;;;;;;5007249;28;20217;-71
2024/01/30 05:45:07;;;;;;;5.90;4.40;;;3.90;99.90;;;;;;5007282;28;20239;-72
2024/01/30 05:47:36;;;;;;;6.03;4.47;;;3.90;99.90;;;;;;5007059;28;20241;-72
2024/01/30 05:50:03;;;;;;;4.30;3.90;;;3.90;99.90;;;;;;5007161;28;20280;-72
2024/01/30 05:52:30;;;;;;;6.57;4.70;;;3.90;99.90;;;;;;5006561;28;20237;-72
2024/01/30 05:54:57;;;;;;;4.63;4.23;;;3.90;99.90;;;;;;5001783;28;20312;-72
2024/01/30 05:57:23;;;;;;;4.90;4.50;;;3.90;99.90;;;;;;4988673;28;20744;-72
2024/01/30 05:59:51;;;;;;;4.40;4.00;;;3.90;99.90;;;;;;5004515;28;20640;-72
2024/01/30 06:02:18;;;;;;;4.57;4.07;;;3.90;99.90;;;;;;5006723;28;20205;-72
2024/01/30 06:04:47;;;;;;;4.40;3.97;;;3.90;99.90;;;;;;5006606;28;20308;-72
2024/01/30 06:07:13;;;;;;;5.53;4.20;;;3.90;99.90;;;;;;5006723;28;20429;-72
2024/01/30 06:09:40;;;;;;;4.37;3.97;;;3.90;99.90;;;;;;5006833;28;20292;-72
2024/01/30 06:12:08;;;;;;;5.00;4.23;;;3.90;99.90;;;;;;5006553;28;20213;-72
2024/01/30 06:14:35;;;;;;;5.73;4.60;;;3.90;99.90;;;;;;5006864;28;20309;-72
2024/01/30 06:17:01;;;;;;;4.40;4.00;;;3.90;99.90;;;;;;5006873;28;20308;-72
2024/01/30 06:19:28;;;;;;;5.93;4.60;;;3.90;99.90;;;;;;5006874;28;20320;-72
2024/01/30 06:21:58;;;;;;;5.00;4.50;;;3.90;99.90;;;;;;5006665;28;20327;-72
2024/01/30 06:24:25;;;;;;;4.67;4.27;;;3.90;99.90;;;;;;5006948;28;20259;-72
2024/01/30 06:26:52;;;;;;;5.07;4.53;;;3.90;99.90;;;;;;5006841;28;20301;-72
2024/01/30 06:29:19;;;;;;;4.73;4.33;;;3.90;99.90;;;;;;5006774;28;20832;-72
2024/01/30 06:31:45;;;;;;;5.60;4.33;;;3.90;99.90;;;;;;5006604;28;20682;-72
2024/01/30 06:34:12;;;;;;;5.40;4.73;;;3.90;99.90;;;;;;5007113;28;20312;-72
2024/01/30 06:36:39;;;;;;;4.83;4.43;;;3.90;99.90;;;;;;5006286;28;20707;-72
2024/01/30 06:39:08;;;;;;;4.70;4.20;;;3.90;99.90;;;;;;5006961;28;20649;-72
2024/01/30 06:41:35;;;;;;;5.70;4.50;;;3.90;99.90;;;;;;5010271;28;20240;-72
2024/01/30 06:44:04;;;;;;;5.80;4.97;;;3.90;99.90;;;;;;5010335;28;20205;-72
2024/01/30 06:46:32;;;;;;;5.47;4.40;;;3.90;99.90;;;;;;5010072;28;20236;-72
2024/01/30 06:48:59;;;;;;;5.57;4.70;;;3.90;99.90;;;;;;5010483;28;20603;-72
2024/01/30 06:51:26;;;;;;;6.07;4.23;;;3.90;99.90;;;;;;5010057;28;20213;-72
2024/01/30 06:53:53;;;;;;;6.17;4.50;;;3.90;99.90;;;;;;5009351;28;20344;-72
2024/01/30 06:56:21;;;;;;;6.30;4.73;;;3.90;99.90;;;;;;4990257;28;20756;-72
2024/01/30 06:58:48;;;;;;;4.97;4.47;;;4.00;99.90;;;;;;4994906;28;20201;-72
2024/01/30 07:01:15;;;;;;;5.63;4.47;;;4.00;99.90;;;;;;5009657;28;20356;-72
2024/01/30 07:03:42;;;;;;;6.27;4.63;;;4.00;99.90;;;;;;5010198;28;20566;-72
2024/01/30 07:06:10;;;;;;;5.73;5.20;;;4.00;99.90;;;;;;5009753;28;20672;-73
2024/01/30 07:08:38;;;;;;;4.80;4.30;;;4.00;99.90;;;;;;5009717;28;20209;-72
2024/01/30 07:11:05;;;;;;;5.33;4.83;;;4.00;99.90;;;;;;5009646;28;20675;-72
2024/01/30 07:13:35;;;;;;;4.80;4.40;;;4.00;99.90;;;;;;5009761;28;20205;-72
2024/01/30 07:16:02;;;;;;;5.07;4.57;;;4.00;99.90;;;;;;5009860;28;20669;-72
2024/01/30 07:18:29;;;;;;;5.83;4.90;;;4.00;99.90;;;;;;5009502;28;20736;-72
2024/01/30 07:20:55;;;;;;;5.30;4.40;;;4.00;99.90;;;;;;5009767;28;20312;-72
2024/01/30 07:23:22;;;;;;;4.77;4.10;;;4.00;99.90;;;;;;5009147;28;20592;-72
2024/01/30 07:25:49;;;;;;;5.27;4.37;;;4.00;99.90;;;;;;4993598;28;20299;-72
2024/01/30 07:28:17;;;;;;;4.67;4.07;;;4.00;99.90;;;;;;4989669;28;20600;-72
2024/01/30 07:30:45;;;;;;;4.87;4.33;;;4.00;99.90;;;;;;4990023;28;20217;-72
2024/01/30 07:33:12;;;;;;;8.17;4.93;;;4.00;99.90;;;;;;4989985;28;20257;-72
2024/01/30 07:35:39;;;;;;;5.83;4.23;;;4.00;99.90;;;;;;4989759;28;20787;-72
2024/01/30 07:38:06;;;;;;;5.57;4.40;;;4.10;99.90;;;;;;4989872;28;20210;-73
2024/01/30 07:40:33;;;;;;;4.70;4.20;;;4.00;99.90;;;;;;4989627;28;20324;-72
2024/01/30 07:43:00;;;;;;;5.27;4.47;;;4.10;99.90;;;;;;4990051;28;20206;-72
2024/01/30 07:45:32;;;;;;;6.27;4.57;;;4.10;99.90;;;;;;4989565;28;20626;-72
2024/01/30 07:48:01;;;;;;;4.97;4.47;;;4.00;99.90;;;;;;4999153;28;20613;-73
2024/01/30 07:50:27;;;;;;;4.77;4.30;;;4.10;99.90;;;;;;5008519;28;20304;-72
2024/01/30 07:52:55;;;;;;;5.37;4.50;;;4.10;99.90;;;;;;5008100;28;20337;-72
2024/01/30 07:55:24;;;;;;;5.17;4.10;;;4.10;99.90;;;;;;5008638;28;20256;-72
2024/01/30 07:57:52;;;;;;;5.30;4.80;;;4.10;99.90;;;;;;5008915;28;20300;-72
2024/01/30 08:00:19;;;;;;;5.37;4.57;;;4.10;99.90;;;;;;5008557;28;20763;-73
2024/01/30 08:02:46;;;;;;;7.80;4.50;;;4.10;99.90;;;;;;5009030;28;20548;-72
2024/01/30 08:05:15;;;;;;;5.67;4.73;;;4.10;99.90;;;;;;5009146;28;20220;-72
2024/01/30 08:07:42;;;;;;;4.93;4.27;;;4.00;99.90;;;;;;5008272;28;20272;-72
2024/01/30 08:10:10;;;;;;;6.03;4.30;;;4.00;99.90;;;;;;5009029;28;20220;-72
2024/01/30 08:12:36;;;;;;;4.80;4.37;;;4.00;99.90;;;;;;5008892;28;20308;-72
2024/01/30 08:15:04;;;;;;;6.07;4.50;;;4.00;99.90;;;;;;5008841;28;20288;-72
2024/01/30 08:17:31;;;;;;;5.00;4.50;;;4.00;99.90;;;;;;5008420;28;20739;-73
2024/01/30 08:19:58;;;;;;;7.60;4.23;;;4.10;99.90;;;;;;5008127;28;20289;-72
2024/01/30 08:22:26;;;;;;;5.40;4.60;;;4.10;99.90;;;;;;5008499;28;20324;-73
2024/01/30 08:24:53;;;;;;;5.00;4.57;;;4.20;99.90;;;;;;5008592;28;20244;-73
2024/01/30 08:27:20;;;;;;;6.60;4.47;;;4.20;99.90;;;;;;5008171;28;20728;-72
2024/01/30 08:29:47;;;;;;;5.67;4.73;;;4.30;99.90;;;;;;5008330;28;20229;-72
2024/01/30 08:32:14;;;;;;;6.90;4.07;;;4.40;99.90;;;;;;5008523;28;20310;-72
2024/01/30 08:34:41;;;;;;;5.73;5.23;;;4.30;99.90;;;;;;5008348;28;20209;-73
2024/01/30 08:37:08;;;;;;;5.50;4.90;;;4.40;99.90;;;;;;5008139;28;20686;-73
2024/01/30 08:39:36;;;;;;;6.37;4.50;;;4.50;99.90;;;;;;5008396;28;20285;-73
2024/01/30 08:42:03;;;;;;;5.73;4.30;;;4.50;99.90;;;;;;5008088;28;20240;-73
2024/01/30 08:44:30;;;;;;;5.03;4.53;;;4.50;99.90;;;;;;5008055;28;20296;-73
2024/01/30 08:46:57;;;;;;;4.83;4.40;;;4.60;99.90;;;;;;5008378;28;20224;-73
2024/01/30 08:49:24;;;;;;;5.70;4.50;;;4.70;99.90;;;;;;5008046;28;20293;-73
2024/01/30 08:51:51;;;;;;;7.60;5.03;;;4.70;99.90;;;;;;5007707;28;20301;-73
2024/01/30 08:54:18;;;;;;;4.87;4.33;;;4.60;99.90;;;;;;5008135;28;20206;-73
2024/01/30 08:56:46;;;;;;;5.33;4.60;;;4.70;99.90;;;;;;5008151;28;20213;-73
2024/01/30 08:59:13;;;;;;;5.23;4.20;;;4.70;99.90;;;;;;5007758;28;20245;-72
2024/01/30 09:01:40;;;;;;;5.90;4.90;;;4.70;99.90;;;;;;5007653;28;20312;-73
2024/01/30 09:04:07;;;;;;;7.63;5.03;;;4.80;99.90;;;;;;5007308;28;20561;-72
2024/01/30 09:06:34;;;;;;;6.00;5.40;;;4.80;99.90;;;;;;5007253;28;20743;-73
2024/01/30 09:09:01;;;;;;;18.87;11.90;;;4.90;99.90;;;;;;5007923;28;20209;-73
2024/01/30 09:11:28;;;;;;;6.37;5.43;;;4.90;99.90;;;;;;5007641;28;20216;-73
2024/01/30 09:13:56;;;;;;;4.97;4.47;;;5.00;99.90;;;;;;5007349;28;20232;-73
2024/01/30 09:16:23;;;;;;;9.33;7.07;;;4.90;99.90;;;;;;4995529;28;20249;-73
2024/01/30 09:18:49;;;;;;;6.57;5.17;;;5.00;99.90;;;;;;4988105;28;20293;-73
2024/01/30 09:21:16;;;;;;;5.67;4.70;;;5.00;99.90;;;;;;4988215;28;20321;-73
2024/01/30 09:23:43;;;;;;;5.90;4.80;;;5.00;99.90;;;;;;4987784;28;20202;-73
2024/01/30 09:26:12;;;;;;;5.13;4.63;;;5.10;99.90;;;;;;5006520;28;20625;-73
2024/01/30 09:28:39;;;;;;;8.63;5.00;;;5.10;99.90;;;;;;5007397;28;20229;-72
2024/01/30 09:31:10;;;;;;;4.77;4.33;;;5.20;99.90;;;;;;5007617;28;20244;-74
2024/01/30 09:33:37;;;;;;;5.37;4.57;;;5.20;99.90;;;;;;5007303;28;20284;-73
2024/01/30 09:36:06;;;;;;;6.20;4.17;;;5.20;99.90;;;;;;5007530;28;20631;-73
2024/01/30 09:38:33;;;;;;;5.37;4.83;;;5.30;99.90;;;;;;5007180;28;20668;-73
2024/01/30 09:41:07;;;;;;;4.63;4.23;;;5.40;99.90;;;;;;5007217;28;20329;-73
2024/01/30 09:43:34;;;;;;;6.17;4.53;;;5.40;99.90;;;;;;5007362;28;20231;-73
2024/01/30 09:46:04;;;;;;;4.77;4.33;;;5.50;99.90;;;;;;5007294;28;20241;-73
2024/01/30 09:48:33;;;;;;;5.00;4.50;;;5.50;99.90;;;;;;5006685;28;20758;-73
2024/01/30 09:51:00;;;;;;;5.37;4.30;;;5.60;99.90;;;;;;5007347;28;20228;-72
2024/01/30 09:53:27;;;;;;;5.13;4.63;;;5.60;99.90;;;;;;5006266;28;20237;-73
2024/01/30 09:55:58;;;;;;;5.00;4.50;;;5.60;99.90;;;;;;5007315;28;20702;-73
2024/01/30 09:58:26;;;;;;;5.70;4.87;;;5.60;99.90;;;;;;5007142;28;20256;-73
2024/01/30 10:00:53;;;;;;;5.77;4.47;;;5.70;99.90;;;;;;5006720;28;20217;-73
2024/01/30 10:03:20;;;;;;;5.30;4.50;;;5.70;99.90;;;;;;5006995;28;20264;-73
2024/01/30 10:05:52;;;;;;;4.93;4.10;;;5.70;99.90;;;;;;5006932;28;20308;-72
2024/01/30 10:08:20;;;;;;;4.70;4.30;;;5.70;99.90;;;;;;5006444;28;20284;-73
2024/01/30 10:10:47;;;;;;;4.73;4.33;;;5.70;99.90;;;;;;5007101;28;20285;-73
2024/01/30 10:13:14;;;;;;;5.13;4.63;;;5.70;99.90;;;;;;5007053;28;20217;-73
2024/01/30 10:15:42;;;;;;;5.20;4.60;;;5.70;99.90;;;;;;5009491;28;20299;-73
2024/01/30 10:18:10;;;;;;;5.63;4.63;;;5.70;99.90;;;;;;5011078;28;20244;-73
2024/01/30 10:20:37;;;;;;;6.80;4.47;;;5.80;99.90;;;;;;5010893;28;20217;-73
2024/01/30 10:23:05;;;;;;;5.20;4.30;;;5.80;99.90;;;;;;5010561;28;20233;-73
2024/01/30 10:25:32;;;;;;;6.87;4.50;;;5.80;99.90;;;;;;5010451;28;20244;-73
2024/01/30 10:28:00;;;;;;;5.13;4.10;;;5.90;99.90;;;;;;5010465;28;20233;-73
2024/01/30 10:30:28;;;;;;;5.43;4.40;;;5.90;99.90;;;;;;5010465;28;20292;-73
2024/01/30 10:32:55;;;;;;;4.57;4.00;;;6.00;99.90;;;;;;5010766;28;20212;-73
2024/01/30 10:35:22;;;;;;;5.27;4.20;;;6.00;99.90;;;;;;5010504;28;20300;-73
2024/01/30 10:37:49;;;;;;;5.13;4.20;;;6.10;99.90;;;;;;5010051;28;20910;-73
2024/01/30 10:40:18;;;;;;;5.03;4.33;;;6.20;99.90;;;;;;5010592;28;20228;-73
2024/01/30 10:42:46;;;;;;;4.60;4.10;;;6.30;99.90;;;;;;5010222;28;20320;-73
2024/01/30 10:45:15;;;;;;;4.57;4.17;;;6.40;99.90;;;;;;5010050;28;20292;-73
2024/01/30 10:47:48;;;;;;;6.10;4.40;;;6.50;99.90;;;;;;5010093;28;20248;-73
2024/01/30 10:50:15;;;;;;;5.10;4.60;;;6.50;99.90;;;;;;5010403;28;20194;-73
2024/01/30 10:52:43;;;;;;;5.20;4.40;;;6.60;99.90;;;;;;5009794;28;20331;-73
2024/01/30 10:55:11;;;;;;;5.23;4.73;;;6.70;99.90;;;;;;4999479;28;20215;-73
2024/01/30 10:57:39;;;;;;;5.00;4.50;;;6.90;99.90;;;;;;4990528;28;20241;-73
2024/01/30 11:00:10;;;;;;;4.70;4.30;;;6.90;99.90;;;;;;4990808;28;20312;-73
2024/01/30 11:02:39;;;;;;;5.93;4.70;;;7.10;99.90;;;;;;4990665;28;20340;-73
2024/01/30 11:05:08;;;;;;;5.40;4.77;;;7.10;99.90;;;;;;4990668;28;20581;-73
2024/01/30 11:07:35;;;;;;;4.87;4.37;;;7.10;99.90;;;;;;4990978;28;20727;-73
2024/01/30 11:10:04;;;;;;;5.67;4.33;;;7.10;99.90;;;;;;5010094;28;20288;-73
2024/01/30 11:12:33;;;;;;;5.83;4.53;;;7.20;99.90;;;;;;5009491;28;20209;-73
2024/01/30 11:15:06;;;;;;;4.80;4.40;;;7.20;99.90;;;;;;5009910;28;20206;-73
2024/01/30 11:17:50;;;;;;;4.87;4.37;;;7.20;99.90;;;;;;5010257;28;20297;-73
2024/01/30 11:20:20;;;;;;;5.70;4.70;;;7.20;99.90;;;;;;5009999;28;20224;-73
2024/01/30 11:22:48;;;;;;;6.13;4.87;;;7.10;99.90;;;;;;5009638;28;20230;-73
2024/01/30 11:25:16;;;;;;;5.43;4.93;;;7.10;99.90;;;;;;5009354;28;20209;-73
2024/01/30 11:27:44;;;;;;;5.40;4.90;;;7.00;99.90;;;;;;5009598;28;20292;-73
2024/01/30 11:30:21;;;;;;;5.47;4.93;;;7.10;99.90;;;;;;5009794;28;20216;-73
2024/01/30 11:32:59;;;;;;;5.00;4.60;;;7.00;99.90;;;;;;5009692;28;20205;-73
2024/01/30 11:35:26;;;;;;;5.10;4.67;;;7.10;99.90;;;;;;5009470;28;20217;-73
2024/01/30 11:37:55;;;;;;;5.47;4.97;;;7.10;99.90;;;;;;5009303;28;20301;-73
2024/01/30 11:40:22;;;;;;;5.50;5.00;;;7.10;99.90;;;;;;5008997;28;20744;-73
2024/01/30 11:42:50;;;;;;;5.43;4.93;;;7.10;99.90;;;;;;4991858;28;20681;-73
2024/01/30 11:45:18;;;;;;;4.87;4.43;;;7.00;99.90;;;;;;4989593;28;20300;-73
2024/01/30 11:47:45;;;;;;;7.80;5.23;;;7.00;99.90;;;;;;4989724;28;20626;-73
2024/01/30 11:50:13;;;;;;;6.20;4.53;;;7.00;99.90;;;;;;4989509;28;20325;-73
2024/01/30 11:52:40;;;;;;;5.10;4.60;;;7.00;99.90;;;;;;4989272;28;20304;-73
2024/01/30 11:55:08;;;;;;;5.77;5.03;;;7.10;99.90;;;;;;5000000;28;20300;-73
2024/01/30 11:57:35;;;;;;;5.23;4.60;;;7.10;99.90;;;;;;5009027;28;20220;-73
2024/01/30 12:00:02;;;;;;;5.53;4.97;;;7.10;99.90;;;;;;5009143;28;20206;-73
2024/01/30 12:02:30;;;;;;;5.47;4.97;;;7.10;99.90;;;;;;5008866;28;20392;-73
2024/01/30 12:04:57;;;;;;;6.90;5.67;;;7.20;99.90;;;;;;5008693;28;20293;-73
2024/01/30 12:07:24;;;;;;;10.17;8.43;;;7.20;99.90;;;;;;5008683;28;20288;-73
2024/01/30 12:09:55;;;;;;;5.00;4.40;;;7.20;99.90;;;;;;5008982;28;20252;-73
2024/01/30 12:12:23;;;;;;;5.20;4.70;;;7.20;99.90;;;;;;5008845;28;20674;-73
2024/01/30 12:14:50;;;;;;;5.17;4.67;;;7.30;99.90;;;;;;5008948;28;20292;-73
2024/01/30 12:17:25;;;;;;;5.93;5.00;;;7.30;99.90;;;;;;5009010;28;20263;-73
2024/01/30 12:20:04;;;;;;;5.00;4.50;;;7.30;99.90;;;;;;5008929;28;20201;-73
2024/01/30 12:22:31;;;;;;;6.07;4.80;;;7.30;99.90;;;;;;5008335;28;20224;-73
2024/01/30 12:24:58;;;;;;;5.17;4.67;;;7.40;99.90;;;;;;5008397;28;20220;-73
2024/01/30 12:27:25;;;;;;;5.10;4.70;;;7.40;99.90;;;;;;5008544;28;20580;-73
2024/01/30 12:29:57;;;;;;;5.73;4.67;;;7.50;99.90;;;;;;4994233;28;20233;-73
2024/01/30 12:32:24;;;;;;;5.60;4.53;;;7.50;99.90;;;;;;4989145;28;20732;-73
2024/01/30 12:34:55;;;;;;;5.63;4.80;;;7.50;99.90;;;;;;4988673;28;20269;-73
2024/01/30 12:37:24;;;;;;;5.23;4.73;;;7.50;99.90;;;;;;4996317;28;20205;-73
2024/01/30 12:39:52;;;;;;;6.17;4.73;;;7.50;99.90;;;;;;5008086;28;20659;-73
2024/01/30 12:42:22;;;;;;;6.57;4.57;;;7.60;99.90;;;;;;5008140;28;21202;-73
2024/01/30 12:44:49;;;;;;;7.70;4.90;;;7.60;99.90;;;;;;5008171;28;20206;-73
2024/01/30 12:47:17;;;;;;;5.30;4.80;;;7.70;99.90;;;;;;5008020;28;20212;-73
2024/01/30 12:49:44;;;;;;;5.57;4.83;;;7.90;99.90;;;;;;5008020;28;20767;-73
2024/01/30 12:52:12;;;;;;;5.90;4.93;;;7.90;99.90;;;;;;5007714;28;20264;-73
2024/01/30 12:54:39;;;;;;;6.00;4.57;;;8.00;99.90;;;;;;5007662;28;20213;-73
2024/01/30 12:57:06;;;;;;;6.67;4.90;;;7.90;99.90;;;;;;5007889;28;20245;-73
2024/01/30 12:59:34;;;;;;;5.60;4.67;;;8.00;99.90;;;;;;5007484;28;20296;-73